sensor_id;sensor_type;location;lat;lon;timestamp;P1;durP1;ratioP1;P2;durP2;ratioP2
61025;SDS011;46911;32.650;-16.902;2023-07-30T00:00:01;5.50;;;2.78;;
61025;SDS011;46911;32.650;-16.902;2023-07-30T00:02:03;3.83;;;2.60;;
61025;SDS011;46911;32.650;-16.902;2023-07-30T00:04:04;5.63;;;2.60;;
61025;SDS011;46911;32.650;-16.902;2023-07-30T00:06:05;3.90;;;2.55;;
61025;SDS011;46911;32.650;-16.902;2023-07-30T00:08:06;5.38;;;2.97;;
61025;SDS011;46911;32.650;-16.902;2023-07-30T00:10:09;6.88;;;3.25;;
61025;SDS011;46911;32.650;-16.902;2023-07-30T00:12:10;5.80;;;3.05;;
61025;SDS011;46911;32.650;-16.902;2023-07-30T00:14:11;6.20;;;3.70;;
61025;SDS011;46911;32.650;-16.902;2023-07-30T00:16:12;8.15;;;3.85;;
61025;SDS011;46911;32.650;-16.902;2023-07-30T00:18:15;5.28;;;3.88;;
61025;SDS011;46911;32.650;-16.902;2023-07-30T00:20:17;7.13;;;4.15;;
61025;SDS011;46911;32.650;-16.902;2023-07-30T00:22:18;8.70;;;4.15;;
61025;SDS011;46911;32.650;-16.902;2023-07-30T00:24:19;11.30;;;4.35;;
61025;SDS011;46911;32.650;-16.902;2023-07-30T00:26:19;6.60;;;4.63;;
61025;SDS011;46911;32.650;-16.902;2023-07-30T00:28:21;12.45;;;4.80;;
61025;SDS011;46911;32.650;-16.902;2023-07-30T00:30:24;8.52;;;4.75;;
61025;SDS011;46911;32.650;-16.902;2023-07-30T00:32:28;9.93;;;4.68;;
61025;SDS011;46911;32.650;-16.902;2023-07-30T00:34:29;9.93;;;5.57;;
61025;SDS011;46911;32.650;-16.902;2023-07-30T00:36:30;8.52;;;5.53;;
61025;SDS011;46911;32.650;-16.902;2023-07-30T00:38:33;7.18;;;5.03;;
61025;SDS011;46911;32.650;-16.902;2023-07-30T00:40:39;6.88;;;5.45;;
61025;SDS011;46911;32.650;-16.902;2023-07-30T00:42:40;6.97;;;5.20;;
61025;SDS011;46911;32.650;-16.902;2023-07-30T00:44:41;8.07;;;5.68;;
61025;SDS011;46911;32.650;-16.902;2023-07-30T00:46:45;7.43;;;5.70;;
61025;SDS011;46911;32.650;-16.902;2023-07-30T00:48:48;6.95;;;5.15;;
61025;SDS011;46911;32.650;-16.902;2023-07-30T00:50:50;11.85;;;5.05;;
61025;SDS011;46911;32.650;-16.902;2023-07-30T00:52:51;8.82;;;5.32;;
61025;SDS011;46911;32.650;-16.902;2023-07-30T00:54:55;6.20;;;4.85;;
61025;SDS011;46911;32.650;-16.902;2023-07-30T00:57:00;17.15;;;5.28;;
61025;SDS011;46911;32.650;-16.902;2023-07-30T00:59:01;9.40;;;6.07;;
61025;SDS011;46911;32.650;-16.902;2023-07-30T01:01:05;8.40;;;5.82;;
61025;SDS011;46911;32.650;-16.902;2023-07-30T01:03:08;10.45;;;5.72;;
61025;SDS011;46911;32.650;-16.902;2023-07-30T01:05:09;7.72;;;6.15;;
61025;SDS011;46911;32.650;-16.902;2023-07-30T01:07:10;7.97;;;5.93;;
61025;SDS011;46911;32.650;-16.902;2023-07-30T01:09:14;11.20;;;5.70;;
61025;SDS011;46911;32.650;-16.902;2023-07-30T01:11:17;11.82;;;5.93;;
61025;SDS011;46911;32.650;-16.902;2023-07-30T01:13:19;7.15;;;5.38;;
61025;SDS011;46911;32.650;-16.902;2023-07-30T01:15:22;7.95;;;5.90;;
61025;SDS011;46911;32.650;-16.902;2023-07-30T01:17:23;9.10;;;6.15;;
61025;SDS011;46911;32.650;-16.902;2023-07-30T01:19:27;8.55;;;6.50;;
61025;SDS011;46911;32.650;-16.902;2023-07-30T01:21:28;8.98;;;6.35;;
61025;SDS011;46911;32.650;-16.902;2023-07-30T01:23:28;10.38;;;6.70;;
61025;SDS011;46911;32.650;-16.902;2023-07-30T01:25:30;8.98;;;6.90;;
61025;SDS011;46911;32.650;-16.902;2023-07-30T01:27:37;7.90;;;6.07;;
61025;SDS011;46911;32.650;-16.902;2023-07-30T01:29:54;8.65;;;6.20;;
61025;SDS011;46911;32.650;-16.902;2023-07-30T01:32:02;8.55;;;5.78;;
61025;SDS011;46911;32.650;-16.902;2023-07-30T01:34:07;9.00;;;5.90;;
61025;SDS011;46911;32.650;-16.902;2023-07-30T01:36:12;8.65;;;5.40;;
61025;SDS011;46911;32.650;-16.902;2023-07-30T01:38:18;10.02;;;5.50;;
61025;SDS011;46911;32.650;-16.902;2023-07-30T01:40:20;8.35;;;5.47;;
61025;SDS011;46911;32.650;-16.902;2023-07-30T01:42:21;12.07;;;5.90;;
61025;SDS011;46911;32.650;-16.902;2023-07-30T01:44:31;11.02;;;5.93;;
61025;SDS011;46911;32.650;-16.902;2023-07-30T01:46:34;10.02;;;5.47;;
61025;SDS011;46911;32.650;-16.902;2023-07-30T01:48:37;8.80;;;5.50;;
61025;SDS011;46911;32.650;-16.902;2023-07-30T01:50:38;9.43;;;5.55;;
61025;SDS011;46911;32.650;-16.902;2023-07-30T01:52:39;11.45;;;5.25;;
61025;SDS011;46911;32.650;-16.902;2023-07-30T01:54:43;12.75;;;5.72;;
61025;SDS011;46911;32.650;-16.902;2023-07-30T01:56:43;7.72;;;5.05;;
61025;SDS011;46911;32.650;-16.902;2023-07-30T01:58:47;9.57;;;5.53;;
61025;SDS011;46911;32.650;-16.902;2023-07-30T02:00:48;8.50;;;5.63;;
61025;SDS011;46911;32.650;-16.902;2023-07-30T02:02:49;7.25;;;5.03;;
61025;SDS011;46911;32.650;-16.902;2023-07-30T02:04:52;6.03;;;5.40;;
61025;SDS011;46911;32.650;-16.902;2023-07-30T02:06:53;8.80;;;4.85;;
61025;SDS011;46911;32.650;-16.902;2023-07-30T02:08:54;6.88;;;4.72;;
61025;SDS011;46911;32.650;-16.902;2023-07-30T02:10:58;9.18;;;5.63;;
61025;SDS011;46911;32.650;-16.902;2023-07-30T02:13:01;7.18;;;5.40;;
61025;SDS011;46911;32.650;-16.902;2023-07-30T02:15:06;7.20;;;5.70;;
61025;SDS011;46911;32.650;-16.902;2023-07-30T02:17:10;7.75;;;5.10;;
61025;SDS011;46911;32.650;-16.902;2023-07-30T02:19:16;6.55;;;4.60;;
61025;SDS011;46911;32.650;-16.902;2023-07-30T02:21:16;8.35;;;5.00;;
61025;SDS011;46911;32.650;-16.902;2023-07-30T02:23:17;5.53;;;4.43;;
61025;SDS011;46911;32.650;-16.902;2023-07-30T02:25:24;8.18;;;4.55;;
61025;SDS011;46911;32.650;-16.902;2023-07-30T02:27:27;4.68;;;3.50;;
61025;SDS011;46911;32.650;-16.902;2023-07-30T02:29:28;6.90;;;4.72;;
61025;SDS011;46911;32.650;-16.902;2023-07-30T02:31:31;6.50;;;4.28;;
61025;SDS011;46911;32.650;-16.902;2023-07-30T02:33:35;8.82;;;4.13;;
61025;SDS011;46911;32.650;-16.902;2023-07-30T02:35:36;5.72;;;4.00;;
61025;SDS011;46911;32.650;-16.902;2023-07-30T02:37:39;5.97;;;3.70;;
61025;SDS011;46911;32.650;-16.902;2023-07-30T02:39:42;7.05;;;3.83;;
61025;SDS011;46911;32.650;-16.902;2023-07-30T02:41:48;6.18;;;4.07;;
61025;SDS011;46911;32.650;-16.902;2023-07-30T02:43:49;8.73;;;4.30;;
61025;SDS011;46911;32.650;-16.902;2023-07-30T02:45:52;5.05;;;4.00;;
61025;SDS011;46911;32.650;-16.902;2023-07-30T02:47:53;9.30;;;4.53;;
61025;SDS011;46911;32.650;-16.902;2023-07-30T02:49:54;8.45;;;4.22;;
61025;SDS011;46911;32.650;-16.902;2023-07-30T02:51:55;10.23;;;4.57;;
61025;SDS011;46911;32.650;-16.902;2023-07-30T02:53:58;10.98;;;3.90;;
61025;SDS011;46911;32.650;-16.902;2023-07-30T02:56:04;7.25;;;4.55;;
61025;SDS011;46911;32.650;-16.902;2023-07-30T02:58:05;6.53;;;4.15;;
61025;SDS011;46911;32.650;-16.902;2023-07-30T03:00:06;7.97;;;4.78;;
61025;SDS011;46911;32.650;-16.902;2023-07-30T03:02:09;6.30;;;4.22;;
61025;SDS011;46911;32.650;-16.902;2023-07-30T03:04:10;5.88;;;4.32;;
61025;SDS011;46911;32.650;-16.902;2023-07-30T03:06:18;6.13;;;4.53;;
61025;SDS011;46911;32.650;-16.902;2023-07-30T03:08:21;5.32;;;4.07;;
61025;SDS011;46911;32.650;-16.902;2023-07-30T03:10:24;10.90;;;4.55;;
61025;SDS011;46911;32.650;-16.902;2023-07-30T03:12:25;7.20;;;3.88;;
61025;SDS011;46911;32.650;-16.902;2023-07-30T03:14:27;6.68;;;3.85;;
61025;SDS011;46911;32.650;-16.902;2023-07-30T03:16:28;12.15;;;4.50;;
61025;SDS011;46911;32.650;-16.902;2023-07-30T03:18:31;6.20;;;4.65;;
61025;SDS011;46911;32.650;-16.902;2023-07-30T03:20:32;6.28;;;4.38;;
61025;SDS011;46911;32.650;-16.902;2023-07-30T03:22:35;13.80;;;3.90;;
61025;SDS011;46911;32.650;-16.902;2023-07-30T03:24:36;10.60;;;3.90;;
61025;SDS011;46911;32.650;-16.902;2023-07-30T03:26:37;6.18;;;4.10;;
61025;SDS011;46911;32.650;-16.902;2023-07-30T03:28:39;4.75;;;3.55;;
61025;SDS011;46911;32.650;-16.902;2023-07-30T03:30:42;6.00;;;4.05;;
61025;SDS011;46911;32.650;-16.902;2023-07-30T03:32:44;8.02;;;3.53;;
61025;SDS011;46911;32.650;-16.902;2023-07-30T03:34:47;6.43;;;3.95;;
61025;SDS011;46911;32.650;-16.902;2023-07-30T03:36:50;9.60;;;3.35;;
61025;SDS011;46911;32.650;-16.902;2023-07-30T03:38:54;10.50;;;4.03;;
61025;SDS011;46911;32.650;-16.902;2023-07-30T03:40:55;9.40;;;3.90;;
61025;SDS011;46911;32.650;-16.902;2023-07-30T03:42:56;6.10;;;3.25;;
61025;SDS011;46911;32.650;-16.902;2023-07-30T03:44:59;9.02;;;3.38;;
61025;SDS011;46911;32.650;-16.902;2023-07-30T03:47:01;5.13;;;3.25;;
61025;SDS011;46911;32.650;-16.902;2023-07-30T03:49:02;6.75;;;3.42;;
61025;SDS011;46911;32.650;-16.902;2023-07-30T03:51:05;6.63;;;3.42;;
61025;SDS011;46911;32.650;-16.902;2023-07-30T03:53:11;5.07;;;3.55;;
61025;SDS011;46911;32.650;-16.902;2023-07-30T03:55:11;7.90;;;3.15;;
61025;SDS011;46911;32.650;-16.902;2023-07-30T03:57:12;4.53;;;2.67;;
61025;SDS011;46911;32.650;-16.902;2023-07-30T03:59:13;5.78;;;2.60;;
61025;SDS011;46911;32.650;-16.902;2023-07-30T04:01:14;8.80;;;3.03;;
61025;SDS011;46911;32.650;-16.902;2023-07-30T04:03:17;3.65;;;2.42;;
61025;SDS011;46911;32.650;-16.902;2023-07-30T04:05:18;4.45;;;2.22;;
61025;SDS011;46911;32.650;-16.902;2023-07-30T04:07:21;5.00;;;2.83;;
61025;SDS011;46911;32.650;-16.902;2023-07-30T04:09:22;5.88;;;2.97;;
61025;SDS011;46911;32.650;-16.902;2023-07-30T04:11:23;5.53;;;1.98;;
61025;SDS011;46911;32.650;-16.902;2023-07-30T04:13:24;6.43;;;2.60;;
61025;SDS011;46911;32.650;-16.902;2023-07-30T04:15:25;5.43;;;2.50;;
61025;SDS011;46911;32.650;-16.902;2023-07-30T04:17:29;5.53;;;2.30;;
61025;SDS011;46911;32.650;-16.902;2023-07-30T04:19:29;6.80;;;2.33;;
61025;SDS011;46911;32.650;-16.902;2023-07-30T04:21:33;4.40;;;1.45;;
61025;SDS011;46911;32.650;-16.902;2023-07-30T04:23:35;4.65;;;1.90;;
61025;SDS011;46911;32.650;-16.902;2023-07-30T04:25:37;5.53;;;1.98;;
61025;SDS011;46911;32.650;-16.902;2023-07-30T04:27:40;3.40;;;1.75;;
61025;SDS011;46911;32.650;-16.902;2023-07-30T04:29:41;3.05;;;1.83;;
61025;SDS011;46911;32.650;-16.902;2023-07-30T04:31:42;3.35;;;1.90;;
61025;SDS011;46911;32.650;-16.902;2023-07-30T04:33:47;5.22;;;2.10;;
61025;SDS011;46911;32.650;-16.902;2023-07-30T04:35:48;3.85;;;1.70;;
61025;SDS011;46911;32.650;-16.902;2023-07-30T04:37:52;2.60;;;1.83;;
61025;SDS011;46911;32.650;-16.902;2023-07-30T04:39:53;2.90;;;1.75;;
61025;SDS011;46911;32.650;-16.902;2023-07-30T04:41:54;3.30;;;1.50;;
61025;SDS011;46911;32.650;-16.902;2023-07-30T04:43:55;5.80;;;1.67;;
61025;SDS011;46911;32.650;-16.902;2023-07-30T04:45:56;6.20;;;2.00;;
61025;SDS011;46911;32.650;-16.902;2023-07-30T04:47:58;3.45;;;1.92;;
61025;SDS011;46911;32.650;-16.902;2023-07-30T04:50:02;2.90;;;1.77;;
61025;SDS011;46911;32.650;-16.902;2023-07-30T04:52:06;4.07;;;1.92;;
61025;SDS011;46911;32.650;-16.902;2023-07-30T04:54:10;5.03;;;1.85;;
61025;SDS011;46911;32.650;-16.902;2023-07-30T04:56:11;2.72;;;1.60;;
61025;SDS011;46911;32.650;-16.902;2023-07-30T04:58:15;2.78;;;1.63;;
61025;SDS011;46911;32.650;-16.902;2023-07-30T05:00:16;5.30;;;2.10;;
61025;SDS011;46911;32.650;-16.902;2023-07-30T05:02:17;2.85;;;1.55;;
61025;SDS011;46911;32.650;-16.902;2023-07-30T05:04:18;5.25;;;2.00;;
61025;SDS011;46911;32.650;-16.902;2023-07-30T05:06:19;2.85;;;1.52;;
61025;SDS011;46911;32.650;-16.902;2023-07-30T05:08:25;3.35;;;1.65;;
61025;SDS011;46911;32.650;-16.902;2023-07-30T05:10:26;2.80;;;1.60;;
61025;SDS011;46911;32.650;-16.902;2023-07-30T05:12:27;4.00;;;1.98;;
61025;SDS011;46911;32.650;-16.902;2023-07-30T05:14:28;2.97;;;1.42;;
61025;SDS011;46911;32.650;-16.902;2023-07-30T05:16:29;5.30;;;2.25;;
61025;SDS011;46911;32.650;-16.902;2023-07-30T05:18:30;3.95;;;1.60;;
61025;SDS011;46911;32.650;-16.902;2023-07-30T05:20:31;2.58;;;1.45;;
61025;SDS011;46911;32.650;-16.902;2023-07-30T05:22:34;2.45;;;1.30;;
61025;SDS011;46911;32.650;-16.902;2023-07-30T05:24:35;3.42;;;1.65;;
61025;SDS011;46911;32.650;-16.902;2023-07-30T05:26:37;2.97;;;1.50;;
61025;SDS011;46911;32.650;-16.902;2023-07-30T05:28:38;1.92;;;1.40;;
61025;SDS011;46911;32.650;-16.902;2023-07-30T05:30:39;2.63;;;1.40;;
61025;SDS011;46911;32.650;-16.902;2023-07-30T05:32:42;5.32;;;1.67;;
61025;SDS011;46911;32.650;-16.902;2023-07-30T05:34:45;2.90;;;1.38;;
61025;SDS011;46911;32.650;-16.902;2023-07-30T05:36:48;5.13;;;1.52;;
61025;SDS011;46911;32.650;-16.902;2023-07-30T05:38:52;2.92;;;1.60;;
61025;SDS011;46911;32.650;-16.902;2023-07-30T05:40:53;3.33;;;1.52;;
61025;SDS011;46911;32.650;-16.902;2023-07-30T05:42:57;3.28;;;1.38;;
61025;SDS011;46911;32.650;-16.902;2023-07-30T05:44:58;7.18;;;1.40;;
61025;SDS011;46911;32.650;-16.902;2023-07-30T05:46:59;3.95;;;1.40;;
61025;SDS011;46911;32.650;-16.902;2023-07-30T05:49:02;2.72;;;1.30;;
61025;SDS011;46911;32.650;-16.902;2023-07-30T05:51:03;2.35;;;1.45;;
61025;SDS011;46911;32.650;-16.902;2023-07-30T05:53:04;3.72;;;1.35;;
61025;SDS011;46911;32.650;-16.902;2023-07-30T05:55:05;4.65;;;1.58;;
61025;SDS011;46911;32.650;-16.902;2023-07-30T05:57:06;2.47;;;1.02;;
61025;SDS011;46911;32.650;-16.902;2023-07-30T05:59:10;4.18;;;1.63;;
61025;SDS011;46911;32.650;-16.902;2023-07-30T06:01:14;2.15;;;1.23;;
61025;SDS011;46911;32.650;-16.902;2023-07-30T06:03:15;5.95;;;1.27;;
61025;SDS011;46911;32.650;-16.902;2023-07-30T06:05:16;3.95;;;1.35;;
61025;SDS011;46911;32.650;-16.902;2023-07-30T06:07:17;1.45;;;0.85;;
61025;SDS011;46911;32.650;-16.902;2023-07-30T06:09:21;2.92;;;1.25;;
61025;SDS011;46911;32.650;-16.902;2023-07-30T06:11:22;1.13;;;0.93;;
61025;SDS011;46911;32.650;-16.902;2023-07-30T06:13:26;1.38;;;0.82;;
61025;SDS011;46911;32.650;-16.902;2023-07-30T06:15:27;3.97;;;1.27;;
61025;SDS011;46911;32.650;-16.902;2023-07-30T06:17:31;3.00;;;1.10;;
61025;SDS011;46911;32.650;-16.902;2023-07-30T06:19:34;1.52;;;0.98;;
61025;SDS011;46911;32.650;-16.902;2023-07-30T06:21:35;7.18;;;1.58;;
61025;SDS011;46911;32.650;-16.902;2023-07-30T06:23:36;2.30;;;1.13;;
61025;SDS011;46911;32.650;-16.902;2023-07-30T06:25:36;7.95;;;1.30;;
61025;SDS011;46911;32.650;-16.902;2023-07-30T06:27:41;3.45;;;0.80;;
61025;SDS011;46911;32.650;-16.902;2023-07-30T06:29:48;3.13;;;1.08;;
61025;SDS011;46911;32.650;-16.902;2023-07-30T06:34:27;1.27;;;1.00;;
61025;SDS011;46911;32.650;-16.902;2023-07-30T06:36:28;4.57;;;1.13;;
61025;SDS011;46911;32.650;-16.902;2023-07-30T06:38:31;7.07;;;1.25;;
61025;SDS011;46911;32.650;-16.902;2023-07-30T06:40:32;1.77;;;0.90;;
61025;SDS011;46911;32.650;-16.902;2023-07-30T06:42:33;4.93;;;1.23;;
61025;SDS011;46911;32.650;-16.902;2023-07-30T06:44:34;3.22;;;0.90;;
61025;SDS011;46911;32.650;-16.902;2023-07-30T06:46:35;1.83;;;1.02;;
61025;SDS011;46911;32.650;-16.902;2023-07-30T06:48:36;7.80;;;1.33;;
61025;SDS011;46911;32.650;-16.902;2023-07-30T06:50:39;4.63;;;0.98;;
61025;SDS011;46911;32.650;-16.902;2023-07-30T06:52:40;2.45;;;1.10;;
61025;SDS011;46911;32.650;-16.902;2023-07-30T06:54:41;1.92;;;1.05;;
61025;SDS011;46911;32.650;-16.902;2023-07-30T06:56:44;3.15;;;1.00;;
61025;SDS011;46911;32.650;-16.902;2023-07-30T06:58:48;3.42;;;1.00;;
61025;SDS011;46911;32.650;-16.902;2023-07-30T07:00:49;2.25;;;1.10;;
61025;SDS011;46911;32.650;-16.902;2023-07-30T07:02:50;1.50;;;1.00;;
61025;SDS011;46911;32.650;-16.902;2023-07-30T07:04:53;1.95;;;1.05;;
61025;SDS011;46911;32.650;-16.902;2023-07-30T07:06:54;2.08;;;0.80;;
61025;SDS011;46911;32.650;-16.902;2023-07-30T07:08:58;2.30;;;0.88;;
61025;SDS011;46911;32.650;-16.902;2023-07-30T07:10:59;4.13;;;0.90;;
61025;SDS011;46911;32.650;-16.902;2023-07-30T07:13:02;2.70;;;0.85;;
61025;SDS011;46911;32.650;-16.902;2023-07-30T07:15:06;7.80;;;1.10;;
61025;SDS011;46911;32.650;-16.902;2023-07-30T07:17:10;1.95;;;1.00;;
61025;SDS011;46911;32.650;-16.902;2023-07-30T07:19:11;4.47;;;0.95;;
61025;SDS011;46911;32.650;-16.902;2023-07-30T07:21:11;2.80;;;0.90;;
61025;SDS011;46911;32.650;-16.902;2023-07-30T07:23:13;4.45;;;0.90;;
61025;SDS011;46911;32.650;-16.902;2023-07-30T07:25:15;2.17;;;1.00;;
61025;SDS011;46911;32.650;-16.902;2023-07-30T07:27:19;4.45;;;1.42;;
61025;SDS011;46911;32.650;-16.902;2023-07-30T07:29:24;7.93;;;1.20;;
61025;SDS011;46911;32.650;-16.902;2023-07-30T07:31:25;3.60;;;0.88;;
61025;SDS011;46911;32.650;-16.902;2023-07-30T07:33:28;2.63;;;1.05;;
61025;SDS011;46911;32.650;-16.902;2023-07-30T07:35:29;1.98;;;0.70;;
61025;SDS011;46911;32.650;-16.902;2023-07-30T07:37:31;1.80;;;1.00;;
61025;SDS011;46911;32.650;-16.902;2023-07-30T07:39:32;1.67;;;0.80;;
61025;SDS011;46911;32.650;-16.902;2023-07-30T07:41:38;2.40;;;0.90;;
61025;SDS011;46911;32.650;-16.902;2023-07-30T07:43:39;2.35;;;0.75;;
61025;SDS011;46911;32.650;-16.902;2023-07-30T07:45:43;2.28;;;1.00;;
61025;SDS011;46911;32.650;-16.902;2023-07-30T07:47:46;1.52;;;0.90;;
61025;SDS011;46911;32.650;-16.902;2023-07-30T07:49:47;1.65;;;0.90;;
61025;SDS011;46911;32.650;-16.902;2023-07-30T07:51:49;2.60;;;1.15;;
61025;SDS011;46911;32.650;-16.902;2023-07-30T07:53:49;1.42;;;0.70;;
61025;SDS011;46911;32.650;-16.902;2023-07-30T07:55:53;3.03;;;0.70;;
61025;SDS011;46911;32.650;-16.902;2023-07-30T07:57:54;1.48;;;0.75;;
61025;SDS011;46911;32.650;-16.902;2023-07-30T07:59:58;4.15;;;1.05;;
61025;SDS011;46911;32.650;-16.902;2023-07-30T08:01:58;1.88;;;1.10;;
61025;SDS011;46911;32.650;-16.902;2023-07-30T08:04:02;4.32;;;1.15;;
61025;SDS011;46911;32.650;-16.902;2023-07-30T08:06:06;6.38;;;1.35;;
61025;SDS011;46911;32.650;-16.902;2023-07-30T08:08:12;3.20;;;0.98;;
61025;SDS011;46911;32.650;-16.902;2023-07-30T08:10:13;1.67;;;0.70;;
61025;SDS011;46911;32.650;-16.902;2023-07-30T08:12:14;1.88;;;0.82;;
61025;SDS011;46911;32.650;-16.902;2023-07-30T08:14:14;3.22;;;0.85;;
61025;SDS011;46911;32.650;-16.902;2023-07-30T08:16:15;2.17;;;1.00;;
61025;SDS011;46911;32.650;-16.902;2023-07-30T08:18:19;3.40;;;0.95;;
61025;SDS011;46911;32.650;-16.902;2023-07-30T08:20:23;0.65;;;0.65;;
61025;SDS011;46911;32.650;-16.902;2023-07-30T08:22:24;1.50;;;0.80;;
61025;SDS011;46911;32.650;-16.902;2023-07-30T08:24:27;3.53;;;0.60;;
61025;SDS011;46911;32.650;-16.902;2023-07-30T08:26:31;2.92;;;0.77;;
61025;SDS011;46911;32.650;-16.902;2023-07-30T08:28:32;2.20;;;0.60;;
61025;SDS011;46911;32.650;-16.902;2023-07-30T08:30:33;1.05;;;0.60;;
61025;SDS011;46911;32.650;-16.902;2023-07-30T08:32:34;2.65;;;0.85;;
61025;SDS011;46911;32.650;-16.902;2023-07-30T08:34:37;1.80;;;0.77;;
61025;SDS011;46911;32.650;-16.902;2023-07-30T08:36:39;3.03;;;0.82;;
61025;SDS011;46911;32.650;-16.902;2023-07-30T08:38:39;2.38;;;0.90;;
61025;SDS011;46911;32.650;-16.902;2023-07-30T08:40:40;2.35;;;0.80;;
61025;SDS011;46911;32.650;-16.902;2023-07-30T08:42:44;1.92;;;0.90;;
61025;SDS011;46911;32.650;-16.902;2023-07-30T08:44:47;1.80;;;0.75;;
61025;SDS011;46911;32.650;-16.902;2023-07-30T08:46:48;9.15;;;0.85;;
61025;SDS011;46911;32.650;-16.902;2023-07-30T08:48:51;2.40;;;0.95;;
61025;SDS011;46911;32.650;-16.902;2023-07-30T08:50:54;5.65;;;0.80;;
61025;SDS011;46911;32.650;-16.902;2023-07-30T08:52:59;5.97;;;1.00;;
61025;SDS011;46911;32.650;-16.902;2023-07-30T08:55:06;5.68;;;1.10;;
61025;SDS011;46911;32.650;-16.902;2023-07-30T08:57:07;2.35;;;0.70;;
61025;SDS011;46911;32.650;-16.902;2023-07-30T08:59:08;3.42;;;1.00;;
61025;SDS011;46911;32.650;-16.902;2023-07-30T09:01:15;2.85;;;1.13;;
61025;SDS011;46911;32.650;-16.902;2023-07-30T09:03:20;4.22;;;1.30;;
61025;SDS011;46911;32.650;-16.902;2023-07-30T09:05:26;1.70;;;0.90;;
61025;SDS011;46911;32.650;-16.902;2023-07-30T09:07:34;2.67;;;1.10;;
61025;SDS011;46911;32.650;-16.902;2023-07-30T09:09:35;4.60;;;0.90;;
61025;SDS011;46911;32.650;-16.902;2023-07-30T09:11:37;2.17;;;1.02;;
61025;SDS011;46911;32.650;-16.902;2023-07-30T09:13:38;2.67;;;1.00;;
61025;SDS011;46911;32.650;-16.902;2023-07-30T09:15:40;3.00;;;0.90;;
61025;SDS011;46911;32.650;-16.902;2023-07-30T09:17:43;5.15;;;1.20;;
61025;SDS011;46911;32.650;-16.902;2023-07-30T09:19:45;4.28;;;1.23;;
61025;SDS011;46911;32.650;-16.902;2023-07-30T09:21:47;4.30;;;1.00;;
61025;SDS011;46911;32.650;-16.902;2023-07-30T09:23:48;5.15;;;1.10;;
61025;SDS011;46911;32.650;-16.902;2023-07-30T09:25:49;2.42;;;1.00;;
61025;SDS011;46911;32.650;-16.902;2023-07-30T09:27:50;5.22;;;1.23;;
61025;SDS011;46911;32.650;-16.902;2023-07-30T09:29:53;2.88;;;0.90;;
61025;SDS011;46911;32.650;-16.902;2023-07-30T09:31:55;1.35;;;0.70;;
61025;SDS011;46911;32.650;-16.902;2023-07-30T09:33:56;1.60;;;0.60;;
61025;SDS011;46911;32.650;-16.902;2023-07-30T09:35:57;4.93;;;0.80;;
61025;SDS011;46911;32.650;-16.902;2023-07-30T09:38:02;1.95;;;0.60;;
61025;SDS011;46911;32.650;-16.902;2023-07-30T09:40:05;1.75;;;0.60;;
61025;SDS011;46911;32.650;-16.902;2023-07-30T09:42:09;3.55;;;0.47;;
61025;SDS011;46911;32.650;-16.902;2023-07-30T09:44:16;4.20;;;0.95;;
61025;SDS011;46911;32.650;-16.902;2023-07-30T09:46:18;3.22;;;1.08;;
61025;SDS011;46911;32.650;-16.902;2023-07-30T09:48:19;2.47;;;0.73;;
61025;SDS011;46911;32.650;-16.902;2023-07-30T09:50:20;2.03;;;0.80;;
61025;SDS011;46911;32.650;-16.902;2023-07-30T09:52:21;1.17;;;0.55;;
61025;SDS011;46911;32.650;-16.902;2023-07-30T09:54:23;2.42;;;0.88;;
61025;SDS011;46911;32.650;-16.902;2023-07-30T09:56:26;4.85;;;0.82;;
61025;SDS011;46911;32.650;-16.902;2023-07-30T09:58:27;4.22;;;0.65;;
61025;SDS011;46911;32.650;-16.902;2023-07-30T10:00:29;5.35;;;0.90;;
61025;SDS011;46911;32.650;-16.902;2023-07-30T10:02:30;3.33;;;0.93;;
61025;SDS011;46911;32.650;-16.902;2023-07-30T10:04:39;3.30;;;0.90;;
61025;SDS011;46911;32.650;-16.902;2023-07-30T10:09:03;2.92;;;0.90;;
61025;SDS011;46911;32.650;-16.902;2023-07-30T10:11:06;1.63;;;0.75;;
61025;SDS011;46911;32.650;-16.902;2023-07-30T10:13:09;2.67;;;0.95;;
61025;SDS011;46911;32.650;-16.902;2023-07-30T10:15:12;2.05;;;0.80;;
61025;SDS011;46911;32.650;-16.902;2023-07-30T10:17:13;2.75;;;0.80;;
61025;SDS011;46911;32.650;-16.902;2023-07-30T10:19:16;3.10;;;0.88;;
61025;SDS011;46911;32.650;-16.902;2023-07-30T10:21:22;1.98;;;0.60;;
61025;SDS011;46911;32.650;-16.902;2023-07-30T10:23:27;1.77;;;0.60;;
61025;SDS011;46911;32.650;-16.902;2023-07-30T10:25:45;2.90;;;0.70;;
61025;SDS011;46911;32.650;-16.902;2023-07-30T10:27:50;2.33;;;0.65;;
61025;SDS011;46911;32.650;-16.902;2023-07-30T10:32:10;3.20;;;0.60;;
61025;SDS011;46911;32.650;-16.902;2023-07-30T10:34:11;1.08;;;0.70;;
61025;SDS011;46911;32.650;-16.902;2023-07-30T10:36:18;0.63;;;0.50;;
61025;SDS011;46911;32.650;-16.902;2023-07-30T10:38:39;7.57;;;1.27;;
61025;SDS011;46911;32.650;-16.902;2023-07-30T10:40:45;2.75;;;0.85;;
61025;SDS011;46911;32.650;-16.902;2023-07-30T10:43:13;2.53;;;0.85;;
61025;SDS011;46911;32.650;-16.902;2023-07-30T10:45:15;3.55;;;0.82;;
61025;SDS011;46911;32.650;-16.902;2023-07-30T10:47:16;3.17;;;1.10;;
61025;SDS011;46911;32.650;-16.902;2023-07-30T10:49:17;2.22;;;0.80;;
61025;SDS011;46911;32.650;-16.902;2023-07-30T10:51:20;1.55;;;0.55;;
61025;SDS011;46911;32.650;-16.902;2023-07-30T10:53:24;4.95;;;0.85;;
61025;SDS011;46911;32.650;-16.902;2023-07-30T10:55:29;3.15;;;0.75;;
61025;SDS011;46911;32.650;-16.902;2023-07-30T10:57:31;1.55;;;0.80;;
61025;SDS011;46911;32.650;-16.902;2023-07-30T10:59:34;2.25;;;0.70;;
61025;SDS011;46911;32.650;-16.902;2023-07-30T11:01:39;1.48;;;0.70;;
61025;SDS011;46911;32.650;-16.902;2023-07-30T11:03:41;3.55;;;1.60;;
61025;SDS011;46911;32.650;-16.902;2023-07-30T11:05:48;7.53;;;3.47;;
61025;SDS011;46911;32.650;-16.902;2023-07-30T11:07:53;5.90;;;1.42;;
61025;SDS011;46911;32.650;-16.902;2023-07-30T11:10:00;6.13;;;1.10;;
61025;SDS011;46911;32.650;-16.902;2023-07-30T11:12:02;4.68;;;1.55;;
61025;SDS011;46911;32.650;-16.902;2023-07-30T11:14:06;4.78;;;2.20;;
61025;SDS011;46911;32.650;-16.902;2023-07-30T11:16:21;1.55;;;1.00;;
61025;SDS011;46911;32.650;-16.902;2023-07-30T11:18:24;3.90;;;0.75;;
61025;SDS011;46911;32.650;-16.902;2023-07-30T11:20:25;7.03;;;1.33;;
61025;SDS011;46911;32.650;-16.902;2023-07-30T11:22:30;4.50;;;1.33;;
61025;SDS011;46911;32.650;-16.902;2023-07-30T11:24:35;1.95;;;0.80;;
61025;SDS011;46911;32.650;-16.902;2023-07-30T11:26:39;8.52;;;1.10;;
61025;SDS011;46911;32.650;-16.902;2023-07-30T11:28:39;4.22;;;1.10;;
61025;SDS011;46911;32.650;-16.902;2023-07-30T11:30:41;3.60;;;1.10;;
61025;SDS011;46911;32.650;-16.902;2023-07-30T11:32:47;3.13;;;0.80;;
61025;SDS011;46911;32.650;-16.902;2023-07-30T11:34:51;4.95;;;1.00;;
61025;SDS011;46911;32.650;-16.902;2023-07-30T11:36:54;3.45;;;0.85;;
61025;SDS011;46911;32.650;-16.902;2023-07-30T11:38:59;3.13;;;0.55;;
61025;SDS011;46911;32.650;-16.902;2023-07-30T11:41:03;2.28;;;0.93;;
61025;SDS011;46911;32.650;-16.902;2023-07-30T11:43:05;3.05;;;1.05;;
61025;SDS011;46911;32.650;-16.902;2023-07-30T11:45:19;4.88;;;1.50;;
61025;SDS011;46911;32.650;-16.902;2023-07-30T11:47:24;5.40;;;1.98;;
61025;SDS011;46911;32.650;-16.902;2023-07-30T11:49:24;3.30;;;1.05;;
61025;SDS011;46911;32.650;-16.902;2023-07-30T11:51:26;3.72;;;1.33;;
61025;SDS011;46911;32.650;-16.902;2023-07-30T11:53:44;5.38;;;1.23;;
61025;SDS011;46911;32.650;-16.902;2023-07-30T11:56:03;4.68;;;1.55;;
61025;SDS011;46911;32.650;-16.902;2023-07-30T11:58:09;12.52;;;6.93;;
61025;SDS011;46911;32.650;-16.902;2023-07-30T12:00:11;3.90;;;2.00;;
61025;SDS011;46911;32.650;-16.902;2023-07-30T12:02:17;3.05;;;0.95;;
61025;SDS011;46911;32.650;-16.902;2023-07-30T12:04:18;2.85;;;1.08;;